Perez Atmospheric Data: 04/08/2021 Summary  Detailed Graphs  Station List

  Temperature     Wind Precipitation Visibility
Timestamp Air Wet
Bulb
Dew-
point
24-hr
Max
24-hr
Min
Relative
Humidity
Atmospheric
Pressure
Avg
Speed
Avg
Dir
Spot
Speed
Spot
Dir
Max
Speed
Max
Dir
  Rate Situation Start End 1 hr 3 hr 6 hr 12 hr 24 hr   Situation
Date Time °F °F °F °F °F % in Hg mph ° mph ° mph ° Y/N in/hr text Date Time Date Time in in in in in mi text
04/08/2021 12:00 AM 36.50 32.00 23.72 66.02 35.96 59.0 Not Reported 0.22 S 0.22 SE 1.79 S No 0.000 No Precipitation 03/22/2021 01:31 PM 03/22/2021 01:36 PM 0.000 0.000 0.000 0.000 0.000 Not Reported Not Reported
04/08/2021 12:05 AM 35.60 31.46 23.72 66.02 34.88 61.0 Not Reported 0.22 SW 0.00 SW 0.67 SW No 0.000 No Precipitation 03/22/2021 01:31 PM 03/22/2021 01:36 PM 0.000 0.000 0.000 0.000 0.000 Not Reported Not Reported
04/08/2021 12:10 AM 36.14 31.82 23.90 66.02 34.88 60.0 Not Reported 0.00 N 0.00 SE 0.67 SW No 0.000 No Precipitation 03/22/2021 01:31 PM 03/22/2021 01:36 PM 0.000 0.000 0.000 0.000 0.000 Not Reported Not Reported
04/08/2021 12:15 AM 34.52 30.56 23.18 66.02 34.16 62.0 Not Reported 1.34 NE 1.79 E 1.79 E No 0.000 No Precipitation 03/22/2021 01:31 PM 03/22/2021 01:36 PM 0.000 0.000 0.000 0.000 0.000 Not Reported Not Reported
04/08/2021 12:20 AM 34.88 31.10 23.72 66.02 33.26 62.0 Not Reported 4.03 SE 2.91 E 4.25 SE No 0.000 No Precipitation 03/22/2021 01:31 PM 03/22/2021 01:36 PM 0.000 0.000 0.000 0.000 0.000 Not Reported Not Reported
04/08/2021 12:25 AM 33.62 30.02 22.82 66.02 33.26 64.0 Not Reported 3.13 SE 3.13 E 4.70 SE No 0.000 No Precipitation 03/22/2021 01:31 PM 03/22/2021 01:36 PM 0.000 0.000 0.000 0.000 0.000 Not Reported Not Reported
04/08/2021 12:30 AM 33.98 30.38 23.54 66.02 33.26 65.0 Not Reported 1.79 SE 2.24 E 4.70 SE No 0.000 No Precipitation 03/22/2021 01:31 PM 03/22/2021 01:36 PM 0.000 0.000 0.000 0.000 0.000 Not Reported Not Reported
04/08/2021 12:35 AM 34.16 30.38 23.36 66.02 33.26 63.0 Not Reported 2.46 SE 2.68 SE 4.47 SE No 0.000 No Precipitation 03/22/2021 01:31 PM 03/22/2021 01:36 PM 0.000 0.000 0.000 0.000 0.000 Not Reported Not Reported
04/08/2021 12:40 AM 36.14 31.82 24.08 66.02 33.26 60.0 Not Reported 2.68 SE 2.68 SE 2.91 E No 0.000 No Precipitation 03/22/2021 01:31 PM 03/22/2021 01:36 PM 0.000 0.000 0.000 0.000 0.000 Not Reported Not Reported
04/08/2021 12:50 AM 31.82 28.58 22.46 66.02 31.64 68.0 Not Reported 2.01 SE 1.34 E 2.68 SE No 0.000 No Precipitation 03/22/2021 01:31 PM 03/22/2021 01:36 PM 0.000 0.000 0.000 0.000 0.000 Not Reported Not Reported
04/08/2021 12:55 AM 32.00 28.94 23.36 66.02 31.64 69.0 Not Reported 1.57 E 1.79 E 2.68 E No 0.000 No Precipitation 03/22/2021 01:31 PM 03/22/2021 01:36 PM 0.000 0.000 0.000 0.000 0.000 Not Reported Not Reported
04/08/2021 01:00 AM 32.90 29.66 23.18 66.02 31.64 66.0 Not Reported 1.79 E 3.13 E 3.13 E No 0.000 No Precipitation 03/22/2021 01:31 PM 03/22/2021 01:36 PM 0.000 0.000 0.000 0.000 0.000 Not Reported Not Reported
04/08/2021 01:05 AM 33.26 30.02 23.72 66.02 31.64 67.0 Not Reported 1.34 E 1.57 E 3.13 E No 0.000 No Precipitation 03/22/2021 01:31 PM 03/22/2021 01:36 PM 0.000 0.000 0.000 0.000 0.000 Not Reported Not Reported
04/08/2021 01:10 AM 33.08 29.84 23.36 66.02 31.64 66.0 Not Reported 1.79 E 2.24 E 3.13 E No 0.000 No Precipitation 03/22/2021 01:31 PM 03/22/2021 01:36 PM 0.000 0.000 0.000 0.000 0.000 Not Reported Not Reported
04/08/2021 01:15 AM 34.70 30.92 24.26 66.02 31.64 64.0 Not Reported 1.12 E 1.34 E 2.24 E No 0.000 No Precipitation 03/22/2021 01:31 PM 03/22/2021 01:36 PM 0.000 0.000 0.000 0.000 0.000 Not Reported Not Reported
04/08/2021 01:20 AM 33.62 29.84 22.46 66.02 31.64 63.0 Not Reported 0.89 E 0.67 E 2.24 E No 0.000 No Precipitation 03/22/2021 01:31 PM 03/22/2021 01:36 PM 0.000 0.000 0.000 0.000 0.000 Not Reported Not Reported
04/08/2021 01:30 AM 30.74 27.86 21.92 66.02 30.74 69.0 Not Reported 1.34 E 1.79 SE 1.79 E No 0.000 No Precipitation 03/22/2021 01:31 PM 03/22/2021 01:36 PM 0.000 0.000 0.000 0.000 0.000 Not Reported Not Reported
04/08/2021 01:40 AM 31.10 28.04 22.10 66.02 30.74 69.0 Not Reported 1.57 E 2.24 E 2.91 E No 0.000 No Precipitation 03/22/2021 01:31 PM 03/22/2021 01:36 PM 0.000 0.000 0.000 0.000 0.000 Not Reported Not Reported
04/08/2021 01:45 AM 30.38 27.50 22.28 66.02 30.38 71.0 Not Reported 2.01 SE 1.12 SE 3.58 SE No 0.000 No Precipitation 03/22/2021 01:31 PM 03/22/2021 01:36 PM 0.000 0.000 0.000 0.000 0.000 Not Reported Not Reported
04/08/2021 01:50 AM 30.92 28.04 22.64 66.02 30.20 71.0 Not Reported 2.01 SE 1.79 E 3.58 SE No 0.000 No Precipitation 03/22/2021 01:31 PM 03/22/2021 01:36 PM 0.000 0.000 0.000 0.000 0.000 Not Reported Not Reported
04/08/2021 01:55 AM 30.56 27.86 22.82 66.02 30.20 72.0 Not Reported 2.01 E 2.46 E 2.46 E No 0.000 No Precipitation 03/22/2021 01:31 PM 03/22/2021 01:36 PM 0.000 0.000 0.000 0.000 0.000 Not Reported Not Reported
04/08/2021 02:00 AM 32.00 29.48 24.62 66.02 30.20 73.0 Not Reported 1.57 E 2.24 E 2.68 E No 0.000 No Precipitation 03/22/2021 01:31 PM 03/22/2021 01:36 PM 0.000 0.000 0.000 0.000 0.000 Not Reported Not Reported
04/08/2021 02:05 AM 32.90 30.02 24.62 66.02 30.20 70.0 Not Reported 2.01 E 2.24 E 2.68 E No 0.000 No Precipitation 03/22/2021 01:31 PM 03/22/2021 01:36 PM 0.000 0.000 0.000 0.000 0.000 Not Reported Not Reported
04/08/2021 02:10 AM 32.00 29.48 24.26 66.02 30.20 72.0 Not Reported 2.01 E 2.01 E 2.24 E No 0.000 No Precipitation 03/22/2021 01:31 PM 03/22/2021 01:36 PM 0.000 0.000 0.000 0.000 0.000 Not Reported Not Reported
04/08/2021 02:15 AM 32.00 28.94 23.36 66.02 30.20 70.0 Not Reported 1.57 NE 1.34 NE 2.46 E No 0.000 No Precipitation 03/22/2021 01:31 PM 03/22/2021 01:36 PM 0.000 0.000 0.000 0.000 0.000 Not Reported Not Reported
04/08/2021 02:20 AM 30.38 27.86 23.18 66.02 30.20 74.0 Not Reported 2.24 NE 3.13 NE 3.13 NE No 0.000 No Precipitation 03/22/2021 01:31 PM 03/22/2021 01:36 PM 0.000 0.000 0.000 0.000 0.000 Not Reported Not Reported
04/08/2021 02:25 AM 31.46 28.94 24.08 66.02 30.20 73.0 Not Reported 1.79 NE 2.01 NE 3.13 NE No 0.000 No Precipitation 03/22/2021 01:31 PM 03/22/2021 01:36 PM 0.000 0.000 0.000 0.000 0.000 Not Reported Not Reported
04/08/2021 02:30 AM 30.92 28.58 23.90 66.02 30.20 74.0 Not Reported 2.46 NE 2.01 NE 3.13 NE No 0.000 No Precipitation 03/22/2021 01:31 PM 03/22/2021 01:36 PM 0.000 0.000 0.000 0.000 0.000 Not Reported Not Reported
04/08/2021 02:35 AM 31.46 28.76 23.90 66.02 30.20 73.0 Not Reported 1.79 NE 1.79 E 2.68 NE No 0.000 No Precipitation 03/22/2021 01:31 PM 03/22/2021 01:36 PM 0.000 0.000 0.000 0.000 0.000 Not Reported Not Reported
04/08/2021 02:40 AM 30.74 28.40 23.72 66.02 30.20 74.0 Not Reported 3.36 E 2.91 E 3.36 E No 0.000 No Precipitation 03/22/2021 01:31 PM 03/22/2021 01:36 PM 0.000 0.000 0.000 0.000 0.000 Not Reported Not Reported
04/08/2021 02:45 AM 31.46 29.30 25.16 66.02 30.20 77.0 Not Reported 2.91 E 3.13 E 3.36 E No 0.000 No Precipitation 03/22/2021 01:31 PM 03/22/2021 01:36 PM 0.000 0.000 0.000 0.000 0.000 Not Reported Not Reported
04/08/2021 02:50 AM 30.38 28.22 23.72 66.02 30.20 76.0 Not Reported 3.58 E 4.03 E 4.25 SE No 0.000 No Precipitation 03/22/2021 01:31 PM 03/22/2021 01:36 PM 0.000 0.000 0.000 0.000 0.000 Not Reported Not Reported
04/08/2021 02:55 AM 29.66 27.50 23.36 66.02 29.48 77.0 Not Reported 2.68 E 2.68 E 4.25 SE No 0.000 No Precipitation 03/22/2021 01:31 PM 03/22/2021 01:36 PM 0.000 0.000 0.000 0.000 0.000 Not Reported Not Reported
04/08/2021 03:05 AM 29.84 27.50 23.36 66.02 29.48 76.0 Not Reported 1.57 NE 1.79 NE 3.13 E No 0.000 No Precipitation 03/22/2021 01:31 PM 03/22/2021 01:36 PM 0.000 0.000 0.000 0.000 0.000 Not Reported Not Reported
04/08/2021 03:10 AM 30.56 28.22 23.90 66.02 29.48 75.0 Not Reported 1.34 NE 0.89 E 3.13 E No 0.000 No Precipitation 03/22/2021 01:31 PM 03/22/2021 01:36 PM 0.000 0.000 0.000 0.000 0.000 Not Reported Not Reported
04/08/2021 03:15 AM 31.10 28.76 24.62 66.02 29.48 76.0 Not Reported 1.57 E 1.34 E 2.24 NE No 0.000 No Precipitation 03/22/2021 01:31 PM 03/22/2021 01:36 PM 0.000 0.000 0.000 0.000 0.000 Not Reported Not Reported
04/08/2021 03:20 AM 30.02 28.04 24.26 66.02 29.48 79.0 Not Reported 1.79 NE 2.91 N 2.91 N No 0.000 No Precipitation 03/22/2021 01:31 PM 03/22/2021 01:36 PM 0.000 0.000 0.000 0.000 0.000 Not Reported Not Reported
04/08/2021 03:25 AM 31.46 29.12 24.80 66.02 29.48 76.0 Not Reported 3.13 N 3.13 N 3.36 N No 0.000 No Precipitation 03/22/2021 01:31 PM 03/22/2021 01:36 PM 0.000 0.000 0.000 0.000 0.000 Not Reported Not Reported
04/08/2021 03:30 AM 32.90 29.84 23.72 66.02 29.48 68.0 Not Reported 2.46 N 0.22 NW 3.36 N No 0.000 No Precipitation 03/22/2021 01:31 PM 03/22/2021 01:36 PM 0.000 0.000 0.000 0.000 0.000 Not Reported Not Reported
04/08/2021 03:35 AM 33.98 30.38 23.72 66.02 29.48 65.0 Not Reported 1.79 N 2.46 N 3.13 N No 0.000 No Precipitation 03/22/2021 01:31 PM 03/22/2021 01:36 PM 0.000 0.000 0.000 0.000 0.000 Not Reported Not Reported
04/08/2021 03:40 AM 34.52 30.74 23.54 66.02 29.48 63.0 Not Reported 0.89 NW 1.34 NW 3.13 N No 0.000 No Precipitation 03/22/2021 01:31 PM 03/22/2021 01:36 PM 0.000 0.000 0.000 0.000 0.000 Not Reported Not Reported
04/08/2021 03:45 AM 35.78 31.64 23.90 66.02 29.48 61.0 Not Reported 2.24 N 2.68 N 4.03 N No 0.000 No Precipitation 03/22/2021 01:31 PM 03/22/2021 01:36 PM 0.000 0.000 0.000 0.000 0.000 Not Reported Not Reported
04/08/2021 03:50 AM 35.96 31.46 23.54 66.02 29.48 59.0 Not Reported 3.58 N 3.80 N 4.03 N No 0.000 No Precipitation 03/22/2021 01:31 PM 03/22/2021 01:36 PM 0.000 0.000 0.000 0.000 0.000 Not Reported Not Reported
04/08/2021 03:55 AM 35.42 31.10 23.36 66.02 29.48 60.0 Not Reported 3.13 N 2.91 N 4.03 N No 0.000 No Precipitation 03/22/2021 01:31 PM 03/22/2021 01:36 PM 0.000 0.000 0.000 0.000 0.000 Not Reported Not Reported
04/08/2021 04:00 AM 34.70 30.74 23.36 66.02 29.48 62.0 Not Reported 3.13 N 2.68 N 3.80 N No 0.000 No Precipitation 03/22/2021 01:31 PM 03/22/2021 01:36 PM 0.000 0.000 0.000 0.000 0.000 Not Reported Not Reported
04/08/2021 04:05 AM 34.52 30.56 23.18 66.02 29.48 62.0 Not Reported 2.01 NW 1.34 N 3.80 N No 0.000 No Precipitation 03/22/2021 01:31 PM 03/22/2021 01:36 PM 0.000 0.000 0.000 0.000 0.000 Not Reported Not Reported
04/08/2021 04:10 AM 34.34 30.56 23.36 66.02 29.48 63.0 Not Reported 3.36 N 3.80 N 4.25 N No 0.000 No Precipitation 03/22/2021 01:31 PM 03/22/2021 01:36 PM 0.000 0.000 0.000 0.000 0.000 Not Reported Not Reported
04/08/2021 04:15 AM 33.80 30.20 23.36 66.02 29.48 64.0 Not Reported 3.36 N 3.58 N 4.25 N No 0.000 No Precipitation 03/22/2021 01:31 PM 03/22/2021 01:36 PM 0.000 0.000 0.000 0.000 0.000 Not Reported Not Reported
04/08/2021 04:20 AM 33.44 30.02 23.72 66.02 29.48 66.0 Not Reported 4.03 N 4.70 N 4.70 N No 0.000 No Precipitation 03/22/2021 01:31 PM 03/22/2021 01:36 PM 0.000 0.000 0.000 0.000 0.000 Not Reported Not Reported
04/08/2021 04:25 AM 33.44 30.20 24.08 66.02 29.48 67.0 Not Reported 3.58 N 3.80 N 4.70 N No 0.000 No Precipitation 03/22/2021 01:31 PM 03/22/2021 01:36 PM 0.000 0.000 0.000 0.000 0.000 Not Reported Not Reported
04/08/2021 04:30 AM 33.26 30.20 24.26 66.02 29.48 68.0 Not Reported 3.58 N 3.36 N 4.03 N No 0.000 No Precipitation 03/22/2021 01:31 PM 03/22/2021 01:36 PM 0.000 0.000 0.000 0.000 0.000 Not Reported Not Reported
04/08/2021 04:35 AM 33.44 30.56 24.80 66.02 29.48 69.0 Not Reported 3.13 N 3.13 N 4.70 NE No 0.000 No Precipitation 03/22/2021 01:31 PM 03/22/2021 01:36 PM 0.000 0.000 0.000 0.000 0.000 Not Reported Not Reported
04/08/2021 04:40 AM 33.08 30.02 24.44 66.02 29.48 69.0 Not Reported 3.13 N 3.80 N 4.70 NE No 0.000 No Precipitation 03/22/2021 01:31 PM 03/22/2021 01:36 PM 0.000 0.000 0.000 0.000 0.000 Not Reported Not Reported
04/08/2021 04:45 AM 32.72 29.84 24.44 66.02 29.48 70.0 Not Reported 3.36 NE 2.68 N 4.03 NE No 0.000 No Precipitation 03/22/2021 01:31 PM 03/22/2021 01:36 PM 0.000 0.000 0.000 0.000 0.000 Not Reported Not Reported
04/08/2021 04:50 AM 32.54 29.84 24.62 66.02 29.48 71.0 Not Reported 3.58 N 3.36 N 4.03 NE No 0.000 No Precipitation 03/22/2021 01:31 PM 03/22/2021 01:36 PM 0.000 0.000 0.000 0.000 0.000 Not Reported Not Reported
04/08/2021 04:55 AM 32.54 29.84 24.80 66.02 29.48 72.0 Not Reported 2.46 N 1.79 NE 4.25 NE No 0.000 No Precipitation 03/22/2021 01:31 PM 03/22/2021 01:36 PM 0.000 0.000 0.000 0.000 0.000 Not Reported Not Reported
04/08/2021 05:00 AM 32.18 29.66 24.62 66.02 29.48 72.0 Not Reported 2.24 NE 2.68 NE 4.25 NE No 0.000 No Precipitation 03/22/2021 01:31 PM 03/22/2021 01:36 PM 0.000 0.000 0.000 0.000 0.000 Not Reported Not Reported
04/08/2021 05:05 AM 32.00 29.48 24.44 66.02 29.48 72.0 Not Reported 2.01 NE 2.46 NE 3.58 NE No 0.000 No Precipitation 03/22/2021 01:31 PM 03/22/2021 01:36 PM 0.000 0.000 0.000 0.000 0.000 Not Reported Not Reported
04/08/2021 05:10 AM 31.64 29.12 24.26 66.02 29.48 73.0 Not Reported 2.46 NE 2.46 NE 3.58 NE No 0.000 No Precipitation 03/22/2021 01:31 PM 03/22/2021 01:36 PM 0.000 0.000 0.000 0.000 0.000 Not Reported Not Reported
04/08/2021 05:15 AM 31.28 28.94 24.44 66.02 29.48 75.0 Not Reported 2.91 NE 2.91 NE 4.03 N No 0.000 No Precipitation 03/22/2021 01:31 PM 03/22/2021 01:36 PM 0.000 0.000 0.000 0.000 0.000 Not Reported Not Reported
04/08/2021 05:20 AM 31.28 28.94 24.62 66.02 29.48 76.0 Not Reported 3.58 N 3.58 N 4.25 N No 0.000 No Precipitation 03/22/2021 01:31 PM 03/22/2021 01:36 PM 0.000 0.000 0.000 0.000 0.000 Not Reported Not Reported
04/08/2021 05:25 AM 31.82 29.48 25.34 66.02 29.48 76.0 Not Reported 4.25 N 4.47 NE 4.70 N No 0.000 No Precipitation 03/22/2021 01:31 PM 03/22/2021 01:36 PM 0.000 0.000 0.000 0.000 0.000 Not Reported Not Reported
04/08/2021 05:30 AM 31.82 29.66 25.52 66.02 29.48 76.0 Not Reported 3.58 N 4.47 N 4.70 N No 0.000 No Precipitation 03/22/2021 01:31 PM 03/22/2021 01:36 PM 0.000 0.000 0.000 0.000 0.000 Not Reported Not Reported
04/08/2021 05:35 AM 31.82 29.66 25.52 66.02 29.48 76.0 Not Reported 4.03 N 4.03 N 4.47 N No 0.000 No Precipitation 03/22/2021 01:31 PM 03/22/2021 01:36 PM 0.000 0.000 0.000 0.000 0.000 Not Reported Not Reported
04/08/2021 05:40 AM 31.46 29.30 25.16 66.02 29.48 76.0 Not Reported 4.25 N 5.37 NE 5.37 NE No 0.000 No Precipitation 03/22/2021 01:31 PM 03/22/2021 01:36 PM 0.000 0.000 0.000 0.000 0.000 Not Reported Not Reported
04/08/2021 05:45 AM 31.46 29.30 25.34 66.02 29.48 77.0 Not Reported 4.92 N 5.14 N 5.82 N No 0.000 No Precipitation 03/22/2021 01:31 PM 03/22/2021 01:36 PM 0.000 0.000 0.000 0.000 0.000 Not Reported Not Reported
04/08/2021 05:50 AM 31.10 28.94 25.16 66.02 29.48 78.0 Not Reported 4.92 N 4.25 N 5.82 N No 0.000 No Precipitation 03/22/2021 01:31 PM 03/22/2021 01:36 PM 0.000 0.000 0.000 0.000 0.000 Not Reported Not Reported
04/08/2021 05:55 AM 31.82 29.48 25.52 66.02 29.48 77.0 Not Reported 4.25 N 5.14 N 5.37 N No 0.000 No Precipitation 03/22/2021 01:31 PM 03/22/2021 01:36 PM 0.000 0.000 0.000 0.000 0.000 Not Reported Not Reported
04/08/2021 06:00 AM 31.82 29.66 25.52 66.02 29.48 76.0 Not Reported 4.92 N 3.58 N 5.37 NW No 0.000 No Precipitation 03/22/2021 01:31 PM 03/22/2021 01:36 PM 0.000 0.000 0.000 0.000 0.000 Not Reported Not Reported
04/08/2021 06:05 AM 31.82 29.66 25.52 66.02 29.48 77.0 Not Reported 3.58 NW 4.47 NW 5.37 NW No 0.000 No Precipitation 03/22/2021 01:31 PM 03/22/2021 01:36 PM 0.000 0.000 0.000 0.000 0.000 Not Reported Not Reported
04/08/2021 06:10 AM 32.00 29.66 25.52 66.02 29.48 77.0 Not Reported 3.80 N 3.13 NW 4.47 NW No 0.000 No Precipitation 03/22/2021 01:31 PM 03/22/2021 01:36 PM 0.000 0.000 0.000 0.000 0.000 Not Reported Not Reported
04/08/2021 06:15 AM 32.00 29.84 25.70 66.02 29.48 76.0 Not Reported 2.24 N 1.57 N 4.25 NW No 0.000 No Precipitation 03/22/2021 01:31 PM 03/22/2021 01:36 PM 0.000 0.000 0.000 0.000 0.000 Not Reported Not Reported
04/08/2021 06:20 AM 32.18 30.02 25.70 66.02 29.48 76.0 Not Reported 2.68 NW 2.01 NW 4.03 N No 0.000 No Precipitation 03/22/2021 01:31 PM 03/22/2021 01:36 PM 0.000 0.000 0.000 0.000 0.000 Not Reported Not Reported
04/08/2021 06:25 AM 32.00 29.84 25.52 66.02 29.48 76.0 Not Reported 2.24 NW 2.68 N 4.03 N No 0.000 No Precipitation 03/22/2021 01:31 PM 03/22/2021 01:36 PM 0.000 0.000 0.000 0.000 0.000 Not Reported Not Reported
04/08/2021 06:30 AM 31.64 29.48 25.52 66.02 29.48 77.0 Not Reported 4.03 N 4.25 N 5.14 N No 0.000 No Precipitation 03/22/2021 01:31 PM 03/22/2021 01:36 PM 0.000 0.000 0.000 0.000 0.000 Not Reported Not Reported
04/08/2021 06:35 AM 31.64 29.48 25.52 66.02 29.48 77.0 Not Reported 3.80 N 3.58 N 5.14 N No 0.000 No Precipitation 03/22/2021 01:31 PM 03/22/2021 01:36 PM 0.000 0.000 0.000 0.000 0.000 Not Reported Not Reported
04/08/2021 06:40 AM 31.64 29.48 25.52 66.02 29.48 77.0 Not Reported 2.91 N 2.91 N 4.92 N No 0.000 No Precipitation 03/22/2021 01:31 PM 03/22/2021 01:36 PM 0.000 0.000 0.000 0.000 0.000 Not Reported Not Reported
04/08/2021 06:45 AM 31.10 28.94 25.34 66.02 29.48 78.0 Not Reported 4.47 N 4.25 NE 5.14 N No 0.000 No Precipitation 03/22/2021 01:31 PM 03/22/2021 01:36 PM 0.000 0.000 0.000 0.000 0.000 Not Reported Not Reported
04/08/2021 06:50 AM 30.74 28.76 25.16 66.02 29.48 79.0 Not Reported 4.70 N 4.70 NE 5.37 NE No 0.000 No Precipitation 03/22/2021 01:31 PM 03/22/2021 01:36 PM 0.000 0.000 0.000 0.000 0.000 Not Reported Not Reported
04/08/2021 06:55 AM 30.74 28.94 25.52 66.02 29.48 80.0 Not Reported 4.70 NE 5.14 NE 5.37 NE No 0.000 No Precipitation 03/22/2021 01:31 PM 03/22/2021 01:36 PM 0.000 0.000 0.000 0.000 0.000 Not Reported Not Reported
04/08/2021 07:00 AM 31.46 29.48 25.70 66.02 29.48 78.0 Not Reported 5.82 NE 3.36 N 6.93 NE No 0.000 No Precipitation 03/22/2021 01:31 PM 03/22/2021 01:36 PM 0.000 0.000 0.000 0.000 0.000 Not Reported Not Reported
04/08/2021 07:05 AM 32.00 29.66 25.70 66.02 29.48 77.0 Not Reported 4.25 N 3.80 N 6.93 NE No 0.000 No Precipitation 03/22/2021 01:31 PM 03/22/2021 01:36 PM 0.000 0.000 0.000 0.000 0.000 Not Reported Not Reported
04/08/2021 07:10 AM 32.18 30.02 25.70 66.02 29.48 76.0 Not Reported 3.36 NE 2.91 NE 5.37 NE No 0.000 No Precipitation 03/22/2021 01:31 PM 03/22/2021 01:36 PM 0.000 0.000 0.000 0.000 0.000 Not Reported Not Reported
04/08/2021 07:15 AM 32.90 30.38 26.06 66.02 29.48 75.0 Not Reported 3.13 NE 3.58 N 4.47 NE No 0.000 No Precipitation 03/22/2021 01:31 PM 03/22/2021 01:36 PM 0.000 0.000 0.000 0.000 0.000 Not Reported Not Reported
04/08/2021 07:20 AM 33.08 30.56 25.88 66.02 29.48 74.0 Not Reported 3.36 N 2.91 N 4.47 N No 0.000 No Precipitation 03/22/2021 01:31 PM 03/22/2021 01:36 PM 0.000 0.000 0.000 0.000 0.000 Not Reported Not Reported
04/08/2021 07:25 AM 33.44 30.74 25.88 66.02 29.48 72.0 Not Reported 2.68 N 1.79 N 4.47 N No 0.000 No Precipitation 03/22/2021 01:31 PM 03/22/2021 01:36 PM 0.000 0.000 0.000 0.000 0.000 Not Reported Not Reported
04/08/2021 07:30 AM 33.80 30.92 25.88 66.02 29.48 71.0 Not Reported 3.58 N 4.03 N 4.70 N No 0.000 No Precipitation 03/22/2021 01:31 PM 03/22/2021 01:36 PM 0.000 0.000 0.000 0.000 0.000 Not Reported Not Reported
04/08/2021 07:35 AM 33.98 31.10 25.88 66.02 29.48 71.0 Not Reported 4.25 N 3.80 N 5.37 N No 0.000 No Precipitation 03/22/2021 01:31 PM 03/22/2021 01:36 PM 0.000 0.000 0.000 0.000 0.000 Not Reported Not Reported
04/08/2021 07:40 AM 34.16 31.28 26.06 66.02 29.48 71.0 Not Reported 5.82 N 4.70 N 6.04 N No 0.000 No Precipitation 03/22/2021 01:31 PM 03/22/2021 01:36 PM 0.000 0.000 0.000 0.000 0.000 Not Reported Not Reported
04/08/2021 07:45 AM 34.52 31.46 25.70 66.02 29.48 69.0 Not Reported 4.03 N 5.14 N 6.93 N No 0.000 No Precipitation 03/22/2021 01:31 PM 03/22/2021 01:36 PM 0.000 0.000 0.000 0.000 0.000 Not Reported Not Reported
04/08/2021 07:50 AM 35.42 32.00 25.88 66.02 29.48 67.0 Not Reported 4.92 N 1.57 NW 7.38 N No 0.000 No Precipitation 03/22/2021 01:31 PM 03/22/2021 01:36 PM 0.000 0.000 0.000 0.000 0.000 Not Reported Not Reported
04/08/2021 07:55 AM 35.96 32.00 25.52 66.02 29.48 64.0 Not Reported 4.03 N 3.80 NW 7.38 N No 0.000 No Precipitation 03/22/2021 01:31 PM 03/22/2021 01:36 PM 0.000 0.000 0.000 0.000 0.000 Not Reported Not Reported
04/08/2021 08:00 AM 36.14 32.00 24.98 66.02 29.48 62.0 Not Reported 4.03 N 3.36 NE 5.37 N No 0.000 No Precipitation 03/22/2021 01:31 PM 03/22/2021 01:36 PM 0.000 0.000 0.000 0.000 0.000 Not Reported Not Reported
04/08/2021 08:05 AM 36.50 32.00 24.62 66.02 29.48 61.0 Not Reported 5.59 N 4.92 N 6.71 N No 0.000 No Precipitation 03/22/2021 01:31 PM 03/22/2021 01:36 PM 0.000 0.000 0.000 0.000 0.000 Not Reported Not Reported
04/08/2021 08:10 AM 37.22 32.36 24.44 66.02 29.48 58.0 Not Reported 4.03 N 3.80 NW 6.71 N No 0.000 No Precipitation 03/22/2021 01:31 PM 03/22/2021 01:36 PM 0.000 0.000 0.000 0.000 0.000 Not Reported Not Reported
04/08/2021 08:15 AM 37.40 32.54 24.26 66.02 29.48 58.0 Not Reported 4.92 N 6.04 N 6.04 N No 0.000 No Precipitation 03/22/2021 01:31 PM 03/22/2021 01:36 PM 0.000 0.000 0.000 0.000 0.000 Not Reported Not Reported
04/08/2021 08:20 AM 37.58 32.54 24.08 66.02 29.48 57.0 Not Reported 5.14 N 4.03 N 6.93 N No 0.000 No Precipitation 03/22/2021 01:31 PM 03/22/2021 01:36 PM 0.000 0.000 0.000 0.000 0.000 Not Reported Not Reported
04/08/2021 08:25 AM 38.30 33.26 24.98 66.02 29.48 58.0 Not Reported 2.24 N 1.34 N 6.93 N No 0.000 No Precipitation 03/22/2021 01:31 PM 03/22/2021 01:36 PM 0.000 0.000 0.000 0.000 0.000 Not Reported Not Reported
04/08/2021 08:30 AM 37.40 32.36 23.54 66.02 29.48 56.0 Not Reported 5.59 N 3.80 N 7.61 N No 0.000 No Precipitation 03/22/2021 01:31 PM 03/22/2021 01:36 PM 0.000 0.000 0.000 0.000 0.000 Not Reported Not Reported
04/08/2021 08:35 AM 38.84 33.26 23.90 66.02 29.48 54.0 Not Reported 3.80 N 5.59 N 7.61 N No 0.000 No Precipitation 03/22/2021 01:31 PM 03/22/2021 01:36 PM 0.000 0.000 0.000 0.000 0.000 Not Reported Not Reported
04/08/2021 08:40 AM 38.84 32.90 23.00 66.02 29.48 52.0 Not Reported 3.13 N 5.59 NW 6.26 N No 0.000 No Precipitation 03/22/2021 01:31 PM 03/22/2021 01:36 PM 0.000 0.000 0.000 0.000 0.000 Not Reported Not Reported
04/08/2021 08:50 AM 39.20 33.08 22.82 66.02 29.48 51.0 Not Reported 4.03 N 6.04 NE 7.16 N No 0.000 No Precipitation 03/22/2021 01:31 PM 03/22/2021 01:36 PM 0.000 0.000 0.000 0.000 0.000 Not Reported Not Reported
04/08/2021 08:55 AM 40.28 34.16 23.90 66.02 29.48 51.0 Not Reported 3.36 NW 3.13 NW 7.16 N No 0.000 No Precipitation 03/22/2021 01:31 PM 03/22/2021 01:36 PM 0.000 0.000 0.000 0.000 0.000 Not Reported Not Reported
04/08/2021 09:00 AM 39.74 33.62 23.18 66.02 29.48 50.0 Not Reported 3.80 N 3.80 W 5.37 NW No 0.000 No Precipitation 03/22/2021 01:31 PM 03/22/2021 01:36 PM 0.000 0.000 0.000 0.000 0.000 Not Reported Not Reported
04/08/2021 09:05 AM 39.20 33.08 22.46 66.02 29.48 50.0 Not Reported 4.47 N 4.47 N 5.82 N No 0.000 No Precipitation 03/22/2021 01:31 PM 03/22/2021 01:36 PM 0.000 0.000 0.000 0.000 0.000 Not Reported Not Reported
04/08/2021 09:10 AM 40.28 33.62 22.10 66.02 29.48 47.0 Not Reported 3.36 NW 2.68 W 5.82 N No 0.000 No Precipitation 03/22/2021 01:31 PM 03/22/2021 01:36 PM 0.000 0.000 0.000 0.000 0.000 Not Reported Not Reported
04/08/2021 09:15 AM 41.00 33.98 22.46 66.02 29.48 46.0 Not Reported 4.03 N 6.04 N 6.04 N No 0.000 No Precipitation 03/22/2021 01:31 PM 03/22/2021 01:36 PM 0.000 0.000 0.000 0.000 0.000 Not Reported Not Reported
04/08/2021 09:20 AM 41.00 33.98 21.74 66.02 29.48 45.0 Not Reported 4.03 N 2.91 NW 9.84 N No 0.000 No Precipitation 03/22/2021 01:31 PM 03/22/2021 01:36 PM 0.000 0.000 0.000 0.000 0.000 Not Reported Not Reported
04/08/2021 09:25 AM 40.46 33.44 21.02 66.02 29.48 45.0 Not Reported 4.25 N 6.26 N 9.84 N No 0.000 No Precipitation 03/22/2021 01:31 PM 03/22/2021 01:36 PM 0.000 0.000 0.000 0.000 0.000 Not Reported Not Reported
04/08/2021 09:30 AM 41.72 34.34 21.74 66.02 29.48 44.0 Not Reported 2.68 N 1.57 NW 7.38 N No 0.000 No Precipitation 03/22/2021 01:31 PM 03/22/2021 01:36 PM 0.000 0.000 0.000 0.000 0.000 Not Reported Not Reported
04/08/2021 09:35 AM 40.64 33.26 19.76 66.02 29.48 42.0 Not Reported 4.25 N 2.68 N 5.82 N No 0.000 No Precipitation 03/22/2021 01:31 PM 03/22/2021 01:36 PM 0.000 0.000 0.000 0.000 0.000 Not Reported Not Reported
04/08/2021 09:40 AM 42.44 34.52 20.66 66.02 29.48 41.0 Not Reported 2.46 W 2.46 N 5.82 N No 0.000 No Precipitation 03/22/2021 01:31 PM 03/22/2021 01:36 PM 0.000 0.000 0.000 0.000 0.000 Not Reported Not Reported
04/08/2021 09:45 AM 41.90 34.16 20.30 66.02 29.48 41.0 Not Reported 2.68 NW 2.91 NW 6.71 NE No 0.000 No Precipitation 03/22/2021 01:31 PM 03/22/2021 01:36 PM 0.000 0.000 0.000 0.000 0.000 Not Reported Not Reported
04/08/2021 09:50 AM 41.72 33.98 20.48 66.02 29.48 42.0 Not Reported 2.24 NW 2.68 N 6.71 NE No 0.000 No Precipitation 03/22/2021 01:31 PM 03/22/2021 01:36 PM 0.000 0.000 0.000 0.000 0.000 Not Reported Not Reported
04/08/2021 09:55 AM 41.90 34.16 20.66 66.02 29.48 42.0 Not Reported 4.92 N 2.91 NE 6.71 N No 0.000 No Precipitation 03/22/2021 01:31 PM 03/22/2021 01:36 PM 0.000 0.000 0.000 0.000 0.000 Not Reported Not Reported
04/08/2021 10:00 AM 42.44 34.52 20.48 66.02 29.48 40.0 Not Reported 5.37 N 3.80 N 6.71 N No 0.000 No Precipitation 03/22/2021 01:31 PM 03/22/2021 01:36 PM 0.000 0.000 0.000 0.000 0.000 Not Reported Not Reported
04/08/2021 10:05 AM 43.52 34.88 19.94 66.02 29.48 38.0 Not Reported 5.14 N 4.25 N 6.26 N No 0.000 No Precipitation 03/22/2021 01:31 PM 03/22/2021 01:36 PM 0.000 0.000 0.000 0.000 0.000 Not Reported Not Reported
04/08/2021 10:10 AM 43.70 35.24 20.30 66.02 29.48 38.0 Not Reported 3.36 N 7.38 N 7.38 N No 0.000 No Precipitation 03/22/2021 01:31 PM 03/22/2021 01:36 PM 0.000 0.000 0.000 0.000 0.000 Not Reported Not Reported
04/08/2021 10:15 AM 44.06 35.60 21.20 66.02 29.48 39.0 Not Reported 3.80 N 4.70 N 10.07 N No 0.000 No Precipitation 03/22/2021 01:31 PM 03/22/2021 01:36 PM 0.000 0.000 0.000 0.000 0.000 Not Reported Not Reported
04/08/2021 10:20 AM 44.24 35.24 19.76 66.02 29.48 36.0 Not Reported 4.70 N 3.58 NW 10.07 N No 0.000 No Precipitation 03/22/2021 01:31 PM 03/22/2021 01:36 PM 0.000 0.000 0.000 0.000 0.000 Not Reported Not Reported
04/08/2021 10:25 AM 45.32 35.96 19.76 66.02 29.48 35.0 Not Reported 6.71 N 6.49 NE 8.28 NE No 0.000 No Precipitation 03/22/2021 01:31 PM 03/22/2021 01:36 PM 0.000 0.000 0.000 0.000 0.000 Not Reported Not Reported
04/08/2021 10:30 AM 45.32 35.78 19.58 66.02 29.48 35.0 Not Reported 6.49 N 4.25 SE 8.28 NE No 0.000 No Precipitation 03/22/2021 01:31 PM 03/22/2021 01:36 PM 0.000 0.000 0.000 0.000 0.000 Not Reported Not Reported
04/08/2021 10:35 AM 43.88 34.52 16.88 66.02 29.48 32.0 Not Reported 4.70 N 4.47 NW 7.83 N No 0.000 No Precipitation 03/22/2021 01:31 PM 03/22/2021 01:36 PM 0.000 0.000 0.000 0.000 0.000 Not Reported Not Reported
04/08/2021 10:40 AM 44.78 35.42 19.04 66.02 29.48 35.0 Not Reported 5.14 N 3.58 NW 9.40 N No 0.000 No Precipitation 03/22/2021 01:31 PM 03/22/2021 01:36 PM 0.000 0.000 0.000 0.000 0.000 Not Reported Not Reported
04/08/2021 10:45 AM 45.68 36.14 19.94 66.02 29.48 35.0 Not Reported 4.03 NW 4.92 N 9.40 N No 0.000 No Precipitation 03/22/2021 01:31 PM 03/22/2021 01:36 PM 0.000 0.000 0.000 0.000 0.000 Not Reported Not Reported
04/08/2021 10:50 AM 45.86 36.32 20.48 66.02 29.48 35.0 Not Reported 7.61 N 3.80 NE 8.95 NE No 0.000 No Precipitation 03/22/2021 01:31 PM 03/22/2021 01:36 PM 0.000 0.000 0.000 0.000 0.000 Not Reported Not Reported
04/08/2021 10:55 AM 46.58 36.86 20.48 66.02 29.48 34.0 Not Reported 4.47 N 5.59 NW 8.95 NE No 0.000 No Precipitation 03/22/2021 01:31 PM 03/22/2021 01:36 PM 0.000 0.000 0.000 0.000 0.000 Not Reported Not Reported
04/08/2021 11:00 AM 46.04 36.32 20.30 66.02 29.48 35.0 Not Reported 5.14 W 4.03 N 7.83 W No 0.000 No Precipitation 03/22/2021 01:31 PM 03/22/2021 01:36 PM 0.000 0.000 0.000 0.000 0.000 Not Reported Not Reported
04/08/2021 11:05 AM 46.40 36.86 20.84 66.02 29.48 35.0 Not Reported 4.03 N 1.57 SW 9.17 NW No 0.000 No Precipitation 03/22/2021 01:31 PM 03/22/2021 01:36 PM 0.000 0.000 0.000 0.000 0.000 Not Reported Not Reported
04/08/2021 11:10 AM 48.02 37.40 20.12 66.02 29.48 32.0 Not Reported 2.68 W 4.70 NW 9.17 NW No 0.000 No Precipitation 03/22/2021 01:31 PM 03/22/2021 01:36 PM 0.000 0.000 0.000 0.000 0.000 Not Reported Not Reported
04/08/2021 11:15 AM 46.58 36.50 19.58 66.02 29.48 33.0 Not Reported 5.82 NW 5.14 NW 8.50 NW No 0.000 No Precipitation 03/22/2021 01:31 PM 03/22/2021 01:36 PM 0.000 0.000 0.000 0.000 0.000 Not Reported Not Reported
04/08/2021 11:20 AM 46.22 36.32 19.22 66.02 29.48 33.0 Not Reported 6.93 NW 2.91 NW 9.84 N No 0.000 No Precipitation 03/22/2021 01:31 PM 03/22/2021 01:36 PM 0.000 0.000 0.000 0.000 0.000 Not Reported Not Reported
04/08/2021 11:25 AM 47.66 37.40 20.66 66.02 29.48 33.0 Not Reported 5.37 NW 2.01 W 10.51 N No 0.000 No Precipitation 03/22/2021 01:31 PM 03/22/2021 01:36 PM 0.000 0.000 0.000 0.000 0.000 Not Reported Not Reported
04/08/2021 11:30 AM 47.30 36.86 19.22 66.02 29.48 32.0 Not Reported 6.26 NW 7.38 W 10.51 N No 0.000 No Precipitation 03/22/2021 01:31 PM 03/22/2021 01:36 PM 0.000 0.000 0.000 0.000 0.000 Not Reported Not Reported
04/08/2021 11:35 AM 47.66 37.04 18.86 66.02 29.48 31.0 Not Reported 3.13 NW 2.01 N 9.40 N No 0.000 No Precipitation 03/22/2021 01:31 PM 03/22/2021 01:36 PM 0.000 0.000 0.000 0.000 0.000 Not Reported Not Reported
04/08/2021 11:40 AM 47.48 37.04 19.58 66.02 29.48 32.0 Not Reported 6.04 NW 5.37 NE 9.62 NW No 0.000 No Precipitation 03/22/2021 01:31 PM 03/22/2021 01:36 PM 0.000 0.000 0.000 0.000 0.000 Not Reported Not Reported
04/08/2021 11:45 AM 48.92 37.94 19.94 66.02 29.48 31.0 Not Reported 4.03 N 4.47 N 9.62 NW No 0.000 No Precipitation 03/22/2021 01:31 PM 03/22/2021 01:36 PM 0.000 0.000 0.000 0.000 0.000 Not Reported Not Reported
04/08/2021 11:50 AM 49.46 38.66 21.56 66.02 29.48 32.0 Not Reported 7.38 N 4.70 N 8.72 N No 0.000 No Precipitation 03/22/2021 01:31 PM 03/22/2021 01:36 PM 0.000 0.000 0.000 0.000 0.000 Not Reported Not Reported
04/08/2021 11:55 AM 50.00 38.48 19.58 66.02 29.48 29.0 Not Reported 3.80 NW 5.59 N 8.72 NW No 0.000 No Precipitation 03/22/2021 01:31 PM 03/22/2021 01:36 PM 0.000 0.000 0.000 0.000 0.000 Not Reported Not Reported
04/08/2021 12:00 PM 49.10 38.12 19.76 66.02 29.48 30.0 Not Reported 5.82 N 3.58 W 7.61 N No 0.000 No Precipitation 03/22/2021 01:31 PM 03/22/2021 01:36 PM 0.000 0.000 0.000 0.000 0.000 Not Reported Not Reported
04/08/2021 12:05 PM 48.92 37.94 19.76 66.02 29.48 30.0 Not Reported 5.14 N 2.91 NW 7.83 N No 0.000 No Precipitation 03/22/2021 01:31 PM 03/22/2021 01:36 PM 0.000 0.000 0.000 0.000 0.000 Not Reported Not Reported
04/08/2021 12:10 PM 49.28 38.48 21.20 66.02 29.48 32.0 Not Reported 5.82 NW 4.70 N 7.83 N No 0.000 No Precipitation 03/22/2021 01:31 PM 03/22/2021 01:36 PM 0.000 0.000 0.000 0.000 0.000 Not Reported Not Reported
04/08/2021 12:15 PM 48.02 37.04 18.32 66.02 29.48 30.0 Not Reported 3.80 NW 4.03 N 7.16 W No 0.000 No Precipitation 03/22/2021 01:31 PM 03/22/2021 01:36 PM 0.000 0.000 0.000 0.000 0.000 Not Reported Not Reported
04/08/2021 12:20 PM 51.44 39.56 20.84 66.02 29.48 29.0 Not Reported 4.92 W 2.24 NW 7.83 W No 0.000 No Precipitation 03/22/2021 01:31 PM 03/22/2021 01:36 PM 0.000 0.000 0.000 0.000 0.000 Not Reported Not Reported
04/08/2021 12:25 PM 50.90 38.84 19.04 66.02 29.48 27.0 Not Reported 4.92 N 7.38 NE 7.83 W No 0.000 No Precipitation 03/22/2021 01:31 PM 03/22/2021 01:36 PM 0.000 0.000 0.000 0.000 0.000 Not Reported Not Reported
04/08/2021 12:30 PM 49.64 37.94 17.96 66.02 29.48 27.0 Not Reported 4.47 N 3.36 N 7.38 NE No 0.000 No Precipitation 03/22/2021 01:31 PM 03/22/2021 01:36 PM 0.000 0.000 0.000 0.000 0.000 Not Reported Not Reported
04/08/2021 12:35 PM 50.54 38.84 19.76 66.02 29.48 29.0 Not Reported 2.68 N 1.57 N 6.93 NW No 0.000 No Precipitation 03/22/2021 01:31 PM 03/22/2021 01:36 PM 0.000 0.000 0.000 0.000 0.000 Not Reported Not Reported
04/08/2021 12:40 PM 52.52 39.92 19.76 66.02 29.48 27.0 Not Reported 3.58 NW 10.29 W 10.29 W No 0.000 No Precipitation 03/22/2021 01:31 PM 03/22/2021 01:36 PM 0.000 0.000 0.000 0.000 0.000 Not Reported Not Reported
04/08/2021 12:45 PM 52.34 39.74 19.76 66.02 29.48 27.0 Not Reported 3.36 NW 0.89 S 10.29 W No 0.000 No Precipitation 03/22/2021 01:31 PM 03/22/2021 01:36 PM 0.000 0.000 0.000 0.000 0.000 Not Reported Not Reported
04/08/2021 12:50 PM 52.52 39.74 19.22 66.02 29.48 26.0 Not Reported 4.47 N 6.04 N 10.29 N No 0.000 No Precipitation 03/22/2021 01:31 PM 03/22/2021 01:36 PM 0.000 0.000 0.000 0.000 0.000 Not Reported Not Reported
04/08/2021 12:55 PM 50.54 38.66 19.22 66.02 29.48 28.0 Not Reported 6.93 NW 5.37 NW 8.95 N No 0.000 No Precipitation 03/22/2021 01:31 PM 03/22/2021 01:36 PM 0.000 0.000 0.000 0.000 0.000 Not Reported Not Reported
04/08/2021 01:00 PM 51.26 39.02 19.04 66.02 29.48 27.0 Not Reported 6.04 N 3.80 N 8.95 N No 0.000 No Precipitation 03/22/2021 01:31 PM 03/22/2021 01:36 PM 0.000 0.000 0.000 0.000 0.000 Not Reported Not Reported
04/08/2021 01:05 PM 54.14 40.82 19.58 66.02 29.48 25.0 Not Reported 2.91 NW 2.46 NW 7.61 NW No 0.000 No Precipitation 03/22/2021 01:31 PM 03/22/2021 01:36 PM 0.000 0.000 0.000 0.000 0.000 Not Reported Not Reported
04/08/2021 01:10 PM 52.34 39.56 18.32 66.02 29.48 25.0 Not Reported 5.14 W 4.03 NW 6.71 W No 0.000 No Precipitation 03/22/2021 01:31 PM 03/22/2021 01:36 PM 0.000 0.000 0.000 0.000 0.000 Not Reported Not Reported
04/08/2021 01:15 PM 51.80 39.20 18.32 66.02 29.48 26.0 Not Reported 4.92 N 5.82 NE 8.05 NE No 0.000 No Precipitation 03/22/2021 01:31 PM 03/22/2021 01:36 PM 0.000 0.000 0.000 0.000 0.000 Not Reported Not Reported
04/08/2021 01:20 PM 52.16 39.20 17.60 66.02 29.48 24.0 Not Reported 7.38 N 6.71 NE 10.07 N No 0.000 No Precipitation 03/22/2021 01:31 PM 03/22/2021 01:36 PM 0.000 0.000 0.000 0.000 0.000 Not Reported Not Reported
04/08/2021 01:25 PM 54.50 41.00 19.76 66.02 29.48 25.0 Not Reported 4.47 NW 3.13 N 10.74 N No 0.000 No Precipitation 03/22/2021 01:31 PM 03/22/2021 01:36 PM 0.000 0.000 0.000 0.000 0.000 Not Reported Not Reported
04/08/2021 01:30 PM 53.06 39.92 19.04 66.02 29.48 25.0 Not Reported 3.13 N 3.58 N 10.74 N No 0.000 No Precipitation 03/22/2021 01:31 PM 03/22/2021 01:36 PM 0.000 0.000 0.000 0.000 0.000 Not Reported Not Reported
04/08/2021 01:35 PM 52.88 39.56 17.78 66.02 29.48 24.0 Not Reported 5.82 N 8.95 NE 9.40 N No 0.000 No Precipitation 03/22/2021 01:31 PM 03/22/2021 01:36 PM 0.000 0.000 0.000 0.000 0.000 Not Reported Not Reported
04/08/2021 01:40 PM 53.24 39.92 18.14 66.02 29.48 24.0 Not Reported 4.92 N 5.37 N 9.84 N No 0.000 No Precipitation 03/22/2021 01:31 PM 03/22/2021 01:36 PM 0.000 0.000 0.000 0.000 0.000 Not Reported Not Reported
04/08/2021 01:45 PM 54.50 40.64 17.96 66.02 29.48 23.0 Not Reported 5.59 NW 4.03 NE 9.84 N No 0.000 No Precipitation 03/22/2021 01:31 PM 03/22/2021 01:36 PM 0.000 0.000 0.000 0.000 0.000 Not Reported Not Reported
04/08/2021 01:50 PM 51.62 38.66 15.80 66.02 29.48 23.0 Not Reported 8.72 N 5.37 N 10.07 N No 0.000 No Precipitation 03/22/2021 01:31 PM 03/22/2021 01:36 PM 0.000 0.000 0.000 0.000 0.000 Not Reported Not Reported
04/08/2021 01:55 PM 54.32 40.10 15.98 66.02 29.48 21.0 Not Reported 8.50 N 7.38 N 11.18 N No 0.000 No Precipitation 03/22/2021 01:31 PM 03/22/2021 01:36 PM 0.000 0.000 0.000 0.000 0.000 Not Reported Not Reported
04/08/2021 02:00 PM 56.12 41.18 16.34 66.02 29.48 20.0 Not Reported 3.36 NW 3.58 NW 11.18 N No 0.000 No Precipitation 03/22/2021 01:31 PM 03/22/2021 01:36 PM 0.000 0.000 0.000 0.000 0.000 Not Reported Not Reported
04/08/2021 02:05 PM 55.40 40.82 16.70 66.02 29.48 21.0 Not Reported 6.49 NW 4.92 NW 7.38 SW No 0.000 No Precipitation 03/22/2021 01:31 PM 03/22/2021 01:36 PM 0.000 0.000 0.000 0.000 0.000 Not Reported Not Reported
04/08/2021 02:10 PM 55.22 40.82 17.06 66.02 29.48 21.0 Not Reported 4.70 N 4.25 NW 7.38 SW No 0.000 No Precipitation 03/22/2021 01:31 PM 03/22/2021 01:36 PM 0.000 0.000 0.000 0.000 0.000 Not Reported Not Reported
04/08/2021 02:15 PM 54.86 40.10 14.54 66.02 29.48 19.0 Not Reported 4.03 N 5.82 N 5.82 N No 0.000 No Precipitation 03/22/2021 01:31 PM 03/22/2021 01:36 PM 0.000 0.000 0.000 0.000 0.000 Not Reported Not Reported
04/08/2021 02:20 PM 54.50 40.28 16.16 66.02 29.48 21.0 Not Reported 6.93 N 4.25 N 11.63 N No 0.000 No Precipitation 03/22/2021 01:31 PM 03/22/2021 01:36 PM 0.000 0.000 0.000 0.000 0.000 Not Reported Not Reported
04/08/2021 02:25 PM 55.94 41.18 17.42 66.02 29.48 21.0 Not Reported 4.25 NW 5.14 NW 11.63 N No 0.000 No Precipitation 03/22/2021 01:31 PM 03/22/2021 01:36 PM 0.000 0.000 0.000 0.000 0.000 Not Reported Not Reported
04/08/2021 02:30 PM 55.76 40.46 14.36 66.02 29.48 19.0 Not Reported 4.92 NW 4.03 W 7.16 N No 0.000 No Precipitation 03/22/2021 01:31 PM 03/22/2021 01:36 PM 0.000 0.000 0.000 0.000 0.000 Not Reported Not Reported
04/08/2021 02:35 PM 55.58 40.64 15.44 66.02 29.48 20.0 Not Reported 4.47 NW 2.01 NW 7.38 NW No 0.000 No Precipitation 03/22/2021 01:31 PM 03/22/2021 01:36 PM 0.000 0.000 0.000 0.000 0.000 Not Reported Not Reported
04/08/2021 02:40 PM 55.58 40.46 14.72 66.02 29.48 19.0 Not Reported 4.03 N 9.84 N 9.84 N No 0.000 No Precipitation 03/22/2021 01:31 PM 03/22/2021 01:36 PM 0.000 0.000 0.000 0.000 0.000 Not Reported Not Reported
04/08/2021 02:45 PM 55.22 40.46 15.44 66.02 29.48 20.0 Not Reported 6.93 N 4.47 NW 9.84 N No 0.000 No Precipitation 03/22/2021 01:31 PM 03/22/2021 01:36 PM 0.000 0.000 0.000 0.000 0.000 Not Reported Not Reported
04/08/2021 02:50 PM 54.50 39.92 14.90 66.02 29.48 20.0 Not Reported 7.38 N 8.05 N 12.30 N No 0.000 No Precipitation 03/22/2021 01:31 PM 03/22/2021 01:36 PM 0.000 0.000 0.000 0.000 0.000 Not Reported Not Reported
04/08/2021 02:55 PM 55.76 40.46 14.54 66.02 29.48 19.0 Not Reported 4.47 NW 3.36 NW 12.30 N No 0.000 No Precipitation 03/22/2021 01:31 PM 03/22/2021 01:36 PM 0.000 0.000 0.000 0.000 0.000 Not Reported Not Reported
04/08/2021 03:00 PM 56.48 40.82 13.28 66.02 29.48 17.0 Not Reported 4.25 N 8.28 N 8.28 N No 0.000 No Precipitation 03/22/2021 01:31 PM 03/22/2021 01:36 PM 0.000 0.000 0.000 0.000 0.000 Not Reported Not Reported
04/08/2021 03:05 PM 55.94 40.64 14.54 66.02 29.48 19.0 Not Reported 5.82 NW 4.03 W 9.17 N No 0.000 No Precipitation 03/22/2021 01:31 PM 03/22/2021 01:36 PM 0.000 0.000 0.000 0.000 0.000 Not Reported Not Reported
04/08/2021 03:10 PM 55.58 40.10 13.10 66.02 29.48 18.0 Not Reported 7.61 N 8.28 N 14.09 W No 0.000 No Precipitation 03/22/2021 01:31 PM 03/22/2021 01:36 PM 0.000 0.000 0.000 0.000 0.000 Not Reported Not Reported
04/08/2021 03:15 PM 56.48 41.00 15.08 66.02 29.48 19.0 Not Reported 6.04 N 2.68 NE 14.09 W No 0.000 No Precipitation 03/22/2021 01:31 PM 03/22/2021 01:36 PM 0.000 0.000 0.000 0.000 0.000 Not Reported Not Reported
04/08/2021 03:20 PM 56.30 40.82 14.36 66.02 29.48 18.0 Not Reported 9.17 N 7.38 N 12.75 N No 0.000 No Precipitation 03/22/2021 01:31 PM 03/22/2021 01:36 PM 0.000 0.000 0.000 0.000 0.000 Not Reported Not Reported
04/08/2021 03:25 PM 56.30 40.46 12.74 66.02 29.48 17.0 Not Reported 5.37 NW 5.59 NW 11.86 NW No 0.000 No Precipitation 03/22/2021 01:31 PM 03/22/2021 01:36 PM 0.000 0.000 0.000 0.000 0.000 Not Reported Not Reported
04/08/2021 03:30 PM 56.48 40.46 11.30 66.02 29.48 16.0 Not Reported 5.59 N 9.62 N 11.18 N No 0.000 No Precipitation 03/22/2021 01:31 PM 03/22/2021 01:36 PM 0.000 0.000 0.000 0.000 0.000 Not Reported Not Reported
04/08/2021 03:35 PM 56.66 40.64 12.92 66.02 29.48 17.0 Not Reported 5.82 N 4.92 N 10.29 NW No 0.000 No Precipitation 03/22/2021 01:31 PM 03/22/2021 01:36 PM 0.000 0.000 0.000 0.000 0.000 Not Reported Not Reported
04/08/2021 03:40 PM 56.48 40.82 13.82 66.02 29.48 18.0 Not Reported 8.28 N 4.92 NE 10.29 NW No 0.000 No Precipitation 03/22/2021 01:31 PM 03/22/2021 01:36 PM 0.000 0.000 0.000 0.000 0.000 Not Reported Not Reported
04/08/2021 03:45 PM 56.48 40.82 14.00 66.02 29.48 18.0 Not Reported 8.28 N 10.07 N 10.07 N No 0.000 No Precipitation 03/22/2021 01:31 PM 03/22/2021 01:36 PM 0.000 0.000 0.000 0.000 0.000 Not Reported Not Reported
04/08/2021 03:50 PM 56.84 40.82 12.92 66.02 29.48 17.0 Not Reported 4.92 NW 10.51 N 10.51 N No 0.000 No Precipitation 03/22/2021 01:31 PM 03/22/2021 01:36 PM 0.000 0.000 0.000 0.000 0.000 Not Reported Not Reported
04/08/2021 03:55 PM 56.84 41.00 13.28 66.02 29.48 17.0 Not Reported 5.82 NW 6.26 NW 11.41 N No 0.000 No Precipitation 03/22/2021 01:31 PM 03/22/2021 01:36 PM 0.000 0.000 0.000 0.000 0.000 Not Reported Not Reported
04/08/2021 04:00 PM 57.02 40.82 11.48 66.02 29.48 15.0 Not Reported 5.14 NW 6.04 W 11.41 N No 0.000 No Precipitation 03/22/2021 01:31 PM 03/22/2021 01:36 PM 0.000 0.000 0.000 0.000 0.000 Not Reported Not Reported
04/08/2021 04:05 PM 56.84 41.00 14.00 66.02 29.48 17.0 Not Reported 4.25 NW 3.36 NW 9.40 N No 0.000 No Precipitation 03/22/2021 01:31 PM 03/22/2021 01:36 PM 0.000 0.000 0.000 0.000 0.000 Not Reported Not Reported
04/08/2021 04:10 PM 56.84 40.46 10.40 66.02 29.48 15.0 Not Reported 4.25 NW 9.84 N 10.74 NE No 0.000 No Precipitation 03/22/2021 01:31 PM 03/22/2021 01:36 PM 0.000 0.000 0.000 0.000 0.000 Not Reported Not Reported
04/08/2021 04:15 PM 55.22 39.38 9.68 66.02 29.48 15.0 Not Reported 9.62 N 10.74 N 10.74 NE No 0.000 No Precipitation 03/22/2021 01:31 PM 03/22/2021 01:36 PM 0.000 0.000 0.000 0.000 0.000 Not Reported Not Reported
04/08/2021 04:20 PM 57.02 40.46 9.50 66.02 29.48 14.0 Not Reported 7.38 N 8.72 N 10.74 NE No 0.000 No Precipitation 03/22/2021 01:31 PM 03/22/2021 01:36 PM 0.000 0.000 0.000 0.000 0.000 Not Reported Not Reported
04/08/2021 04:25 PM 56.66 40.28 10.04 66.02 29.48 15.0 Not Reported 10.51 N 11.18 N 12.97 NE No 0.000 No Precipitation 03/22/2021 01:31 PM 03/22/2021 01:36 PM 0.000 0.000 0.000 0.000 0.000 Not Reported Not Reported
04/08/2021 04:30 PM 55.94 39.92 10.04 66.02 29.48 15.0 Not Reported 6.04 N 8.50 NW 12.97 NE No 0.000 No Precipitation 03/22/2021 01:31 PM 03/22/2021 01:36 PM 0.000 0.000 0.000 0.000 0.000 Not Reported Not Reported
04/08/2021 04:35 PM 55.76 39.74 9.50 66.02 29.48 15.0 Not Reported 7.38 N 6.71 N 12.30 N No 0.000 No Precipitation 03/22/2021 01:31 PM 03/22/2021 01:36 PM 0.000 0.000 0.000 0.000 0.000 Not Reported Not Reported
04/08/2021 04:40 PM 57.92 40.82 9.68 66.02 29.48 14.0 Not Reported 3.36 NW 6.71 N 8.95 N No 0.000 No Precipitation 03/22/2021 01:31 PM 03/22/2021 01:36 PM 0.000 0.000 0.000 0.000 0.000 Not Reported Not Reported
04/08/2021 04:45 PM 57.38 40.64 9.68 65.66 29.48 14.0 Not Reported 5.14 NW 5.37 N 10.51 N No 0.000 No Precipitation 03/22/2021 01:31 PM 03/22/2021 01:36 PM 0.000 0.000 0.000 0.000 0.000 Not Reported Not Reported
04/08/2021 04:50 PM 56.84 40.28 8.96 65.66 29.48 14.0 Not Reported 3.58 N 5.82 N 10.51 N No 0.000 No Precipitation 03/22/2021 01:31 PM 03/22/2021 01:36 PM 0.000 0.000 0.000 0.000 0.000 Not Reported Not Reported
04/08/2021 04:55 PM 57.20 40.64 9.86 65.66 29.48 14.0 Not Reported 7.16 N 4.92 N 11.63 NE No 0.000 No Precipitation 03/22/2021 01:31 PM 03/22/2021 01:36 PM 0.000 0.000 0.000 0.000 0.000 Not Reported Not Reported
04/08/2021 05:00 PM 57.56 40.82 10.22 65.66 29.48 14.0 Not Reported 6.04 W 2.91 W 11.63 NE No 0.000 No Precipitation 03/22/2021 01:31 PM 03/22/2021 01:36 PM 0.000 0.000 0.000 0.000 0.000 Not Reported Not Reported
04/08/2021 05:05 PM 57.92 41.00 9.68 65.66 29.48 14.0 Not Reported 5.14 N 7.61 N 7.61 N No 0.000 No Precipitation 03/22/2021 01:31 PM 03/22/2021 01:36 PM 0.000 0.000 0.000 0.000 0.000 Not Reported Not Reported
04/08/2021 05:10 PM 56.84 40.28 9.68 65.66 29.48 14.0 Not Reported 4.92 NW 5.82 NW 9.84 NE No 0.000 No Precipitation 03/22/2021 01:31 PM 03/22/2021 01:36 PM 0.000 0.000 0.000 0.000 0.000 Not Reported Not Reported
04/08/2021 05:15 PM 56.84 40.46 10.40 65.66 29.48 15.0 Not Reported 7.16 NW 4.47 N 10.74 W No 0.000 No Precipitation 03/22/2021 01:31 PM 03/22/2021 01:36 PM 0.000 0.000 0.000 0.000 0.000 Not Reported Not Reported
04/08/2021 05:20 PM 55.58 39.74 10.22 63.32 29.48 15.0 Not Reported 8.50 N 9.62 N 11.18 N No 0.000 No Precipitation 03/22/2021 01:31 PM 03/22/2021 01:36 PM 0.000 0.000 0.000 0.000 0.000 Not Reported Not Reported
04/08/2021 05:25 PM 56.84 40.46 10.40 62.78 29.48 15.0 Not Reported 5.37 NE 3.58 N 11.63 N No 0.000 No Precipitation 03/22/2021 01:31 PM 03/22/2021 01:36 PM 0.000 0.000 0.000 0.000 0.000 Not Reported Not Reported
04/08/2021 05:30 PM 56.12 39.92 9.68 62.78 29.48 15.0 Not Reported 6.71 NE 5.59 N 11.63 N No 0.000 No Precipitation 03/22/2021 01:31 PM 03/22/2021 01:36 PM 0.000 0.000 0.000 0.000 0.000 Not Reported Not Reported
04/08/2021 05:35 PM 56.66 40.28 10.04 62.42 29.48 15.0 Not Reported 4.03 N 6.04 N 9.17 N No 0.000 No Precipitation 03/22/2021 01:31 PM 03/22/2021 01:36 PM 0.000 0.000 0.000 0.000 0.000 Not Reported Not Reported
04/08/2021 05:40 PM 56.12 39.92 9.50 62.42 29.48 15.0 Not Reported 7.38 N 5.59 N 11.41 N No 0.000 No Precipitation 03/22/2021 01:31 PM 03/22/2021 01:36 PM 0.000 0.000 0.000 0.000 0.000 Not Reported Not Reported
04/08/2021 05:45 PM 55.40 39.56 9.14 62.42 29.48 15.0 Not Reported 6.71 NW 4.03 N 11.41 N No 0.000 No Precipitation 03/22/2021 01:31 PM 03/22/2021 01:36 PM 0.000 0.000 0.000 0.000 0.000 Not Reported Not Reported
04/08/2021 05:50 PM 56.84 40.46 10.76 62.42 29.48 15.0 Not Reported 2.68 N 0.89 N 9.40 N No 0.000 No Precipitation 03/22/2021 01:31 PM 03/22/2021 01:36 PM 0.000 0.000 0.000 0.000 0.000 Not Reported Not Reported
04/08/2021 05:55 PM 55.94 39.74 9.14 62.42 29.48 15.0 Not Reported 5.59 N 6.71 N 6.71 N No 0.000 No Precipitation 03/22/2021 01:31 PM 03/22/2021 01:36 PM 0.000 0.000 0.000 0.000 0.000 Not Reported Not Reported
04/08/2021 06:00 PM 55.22 39.38 8.78 61.88 29.48 15.0 Not Reported 3.13 N 6.49 N 6.71 N No 0.000 No Precipitation 03/22/2021 01:31 PM 03/22/2021 01:36 PM 0.000 0.000 0.000 0.000 0.000 Not Reported Not Reported
04/08/2021 06:05 PM 54.32 39.20 10.58 61.88 29.48 16.0 Not Reported 7.16 N 8.72 N 9.17 N No 0.000 No Precipitation 03/22/2021 01:31 PM 03/22/2021 01:36 PM 0.000 0.000 0.000 0.000 0.000 Not Reported Not Reported
04/08/2021 06:10 PM 54.68 39.38 10.76 61.88 29.48 16.0 Not Reported 9.84 N 8.28 N 12.30 NE No 0.000 No Precipitation 03/22/2021 01:31 PM 03/22/2021 01:36 PM 0.000 0.000 0.000 0.000 0.000 Not Reported Not Reported
04/08/2021 06:15 PM 55.04 39.56 11.30 61.16 29.48 17.0 Not Reported 6.04 N 4.25 NE 12.30 NE No 0.000 No Precipitation 03/22/2021 01:31 PM 03/22/2021 01:36 PM 0.000 0.000 0.000 0.000 0.000 Not Reported Not Reported
04/08/2021 06:20 PM 54.14 39.20 11.66 60.08 29.48 17.0 Not Reported 5.59 N 4.25 W 9.17 N No 0.000 No Precipitation 03/22/2021 01:31 PM 03/22/2021 01:36 PM 0.000 0.000 0.000 0.000 0.000 Not Reported Not Reported
04/08/2021 06:25 PM 54.32 39.20 11.30 60.08 29.48 17.0 Not Reported 6.26 N 6.26 N 8.05 NE No 0.000 No Precipitation 03/22/2021 01:31 PM 03/22/2021 01:36 PM 0.000 0.000 0.000 0.000 0.000 Not Reported Not Reported
04/08/2021 06:30 PM 54.50 39.38 11.48 60.08 29.48 17.0 Not Reported 4.47 N 2.24 N 9.17 N No 0.000 No Precipitation 03/22/2021 01:31 PM 03/22/2021 01:36 PM 0.000 0.000 0.000 0.000 0.000 Not Reported Not Reported
04/08/2021 06:35 PM 54.14 39.20 12.20 60.08 29.48 18.0 Not Reported 5.14 N 5.59 NW 9.17 N No 0.000 No Precipitation 03/22/2021 01:31 PM 03/22/2021 01:36 PM 0.000 0.000 0.000 0.000 0.000 Not Reported Not Reported
04/08/2021 06:40 PM 53.78 39.02 11.84 59.72 29.48 18.0 Not Reported 7.61 N 5.37 N 8.50 N No 0.000 No Precipitation 03/22/2021 01:31 PM 03/22/2021 01:36 PM 0.000 0.000 0.000 0.000 0.000 Not Reported Not Reported
04/08/2021 06:45 PM 53.42 38.84 11.84 59.36 29.48 18.0 Not Reported 3.36 N 4.47 N 8.50 N No 0.000 No Precipitation 03/22/2021 01:31 PM 03/22/2021 01:36 PM 0.000 0.000 0.000 0.000 0.000 Not Reported Not Reported
04/08/2021 06:50 PM 53.06 38.66 11.84 59.18 29.48 18.0 Not Reported 7.38 N 6.49 NW 8.72 N No 0.000 No Precipitation 03/22/2021 01:31 PM 03/22/2021 01:36 PM 0.000 0.000 0.000 0.000 0.000 Not Reported Not Reported
04/08/2021 06:55 PM 53.06 38.84 12.92 58.46 29.48 19.0 Not Reported 4.70 NW 3.13 NW 8.72 N No 0.000 No Precipitation 03/22/2021 01:31 PM 03/22/2021 01:36 PM 0.000 0.000 0.000 0.000 0.000 Not Reported Not Reported
04/08/2021 07:00 PM 52.88 38.84 14.00 58.46 29.48 20.0 Not Reported 3.36 N 5.82 N 8.72 N No 0.000 No Precipitation 03/22/2021 01:31 PM 03/22/2021 01:36 PM 0.000 0.000 0.000 0.000 0.000 Not Reported Not Reported
04/08/2021 07:05 PM 52.34 38.66 14.54 58.46 29.48 21.0 Not Reported 5.37 NW 7.61 N 8.72 N No 0.000 No Precipitation 03/22/2021 01:31 PM 03/22/2021 01:36 PM 0.000 0.000 0.000 0.000 0.000 Not Reported Not Reported
04/08/2021 07:15 PM 51.80 38.48 14.90 58.46 29.48 22.0 Not Reported 4.47 N 5.59 NE 7.61 N No 0.000 No Precipitation 03/22/2021 01:31 PM 03/22/2021 01:36 PM 0.000 0.000 0.000 0.000 0.000 Not Reported Not Reported
04/08/2021 07:20 PM 51.44 38.12 14.36 58.46 29.48 22.0 Not Reported 4.47 NW 5.59 NW 7.61 N No 0.000 No Precipitation 03/22/2021 01:31 PM 03/22/2021 01:36 PM 0.000 0.000 0.000 0.000 0.000 Not Reported Not Reported
04/08/2021 07:25 PM 51.08 38.12 14.90 58.46 29.48 23.0 Not Reported 2.24 N 0.67 N 6.04 N No 0.000 No Precipitation 03/22/2021 01:31 PM 03/22/2021 01:36 PM 0.000 0.000 0.000 0.000 0.000 Not Reported Not Reported
04/08/2021 07:30 PM 50.54 37.76 14.90 58.46 29.48 23.0 Not Reported 1.57 NW 2.91 N 5.59 N No 0.000 No Precipitation 03/22/2021 01:31 PM 03/22/2021 01:36 PM 0.000 0.000 0.000 0.000 0.000 Not Reported Not Reported
04/08/2021 07:35 PM 50.00 37.58 15.08 58.46 29.48 24.0 Not Reported 1.57 NW 1.34 NW 5.14 N No 0.000 No Precipitation 03/22/2021 01:31 PM 03/22/2021 01:36 PM 0.000 0.000 0.000 0.000 0.000 Not Reported Not Reported
04/08/2021 07:40 PM 49.64 37.40 15.44 58.46 29.48 24.0 Not Reported 4.03 N 2.68 NE 5.14 N No 0.000 No Precipitation 03/22/2021 01:31 PM 03/22/2021 01:36 PM 0.000 0.000 0.000 0.000 0.000 Not Reported Not Reported
04/08/2021 07:45 PM 48.92 37.04 15.80 58.46 29.48 26.0 Not Reported 2.68 N 2.46 N 5.59 N No 0.000 No Precipitation 03/22/2021 01:31 PM 03/22/2021 01:36 PM 0.000 0.000 0.000 0.000 0.000 Not Reported Not Reported
04/08/2021 07:50 PM 48.56 36.86 15.98 58.46 29.48 26.0 Not Reported 3.80 N 3.80 N 5.59 N No 0.000 No Precipitation 03/22/2021 01:31 PM 03/22/2021 01:36 PM 0.000 0.000 0.000 0.000 0.000 Not Reported Not Reported
04/08/2021 07:55 PM 47.84 36.50 15.98 58.46 29.48 27.0 Not Reported 4.03 N 3.80 N 5.59 N No 0.000 No Precipitation 03/22/2021 01:31 PM 03/22/2021 01:36 PM 0.000 0.000 0.000 0.000 0.000 Not Reported Not Reported
04/08/2021 08:00 PM 47.84 36.50 16.34 58.46 29.48 27.0 Not Reported 5.82 N 5.37 N 6.26 N No 0.000 No Precipitation 03/22/2021 01:31 PM 03/22/2021 01:36 PM 0.000 0.000 0.000 0.000 0.000 Not Reported Not Reported
04/08/2021 08:05 PM 47.30 36.32 16.52 58.46 29.48 28.0 Not Reported 4.70 N 4.92 N 6.26 N No 0.000 No Precipitation 03/22/2021 01:31 PM 03/22/2021 01:36 PM 0.000 0.000 0.000 0.000 0.000 Not Reported Not Reported
04/08/2021 08:10 PM 46.76 35.96 16.52 58.46 29.48 29.0 Not Reported 4.70 N 4.47 N 5.82 N No 0.000 No Precipitation 03/22/2021 01:31 PM 03/22/2021 01:36 PM 0.000 0.000 0.000 0.000 0.000 Not Reported Not Reported
04/08/2021 08:15 PM 47.30 36.32 16.70 58.46 29.48 28.0 Not Reported 5.37 N 5.14 NE 6.26 NW No 0.000 No Precipitation 03/22/2021 01:31 PM 03/22/2021 01:36 PM 0.000 0.000 0.000 0.000 0.000 Not Reported Not Reported
04/08/2021 08:20 PM 46.40 35.78 16.52 58.46 29.48 29.0 Not Reported 3.58 N 4.70 N 6.26 NW No 0.000 No Precipitation 03/22/2021 01:31 PM 03/22/2021 01:36 PM 0.000 0.000 0.000 0.000 0.000 Not Reported Not Reported
04/08/2021 08:25 PM 46.40 35.78 16.34 58.46 29.48 29.0 Not Reported 4.03 N 3.80 N 5.59 N No 0.000 No Precipitation 03/22/2021 01:31 PM 03/22/2021 01:36 PM 0.000 0.000 0.000 0.000 0.000 Not Reported Not Reported
04/08/2021 08:30 PM 46.40 35.96 16.70 58.46 29.48 29.0 Not Reported 3.13 N 4.47 N 5.14 NE No 0.000 No Precipitation 03/22/2021 01:31 PM 03/22/2021 01:36 PM 0.000 0.000 0.000 0.000 0.000 Not Reported Not Reported
04/08/2021 08:35 PM 46.22 35.78 16.70 58.46 29.48 30.0 Not Reported 4.25 N 5.14 N 5.14 N No 0.000 No Precipitation 03/22/2021 01:31 PM 03/22/2021 01:36 PM 0.000 0.000 0.000 0.000 0.000 Not Reported Not Reported
04/08/2021 08:40 PM 45.50 35.24 16.70 58.46 29.48 30.0 Not Reported 3.80 N 2.24 E 5.14 N No 0.000 No Precipitation 03/22/2021 01:31 PM 03/22/2021 01:36 PM 0.000 0.000 0.000 0.000 0.000 Not Reported Not Reported
04/08/2021 08:45 PM 44.96 35.06 16.88 58.46 29.48 31.0 Not Reported 2.46 NE 2.24 NE 4.25 NE No 0.000 No Precipitation 03/22/2021 01:31 PM 03/22/2021 01:36 PM 0.000 0.000 0.000 0.000 0.000 Not Reported Not Reported
04/08/2021 08:50 PM 44.24 34.70 17.06 58.46 29.48 32.0 Not Reported 1.57 E 1.79 NE 3.13 NE No 0.000 No Precipitation 03/22/2021 01:31 PM 03/22/2021 01:36 PM 0.000 0.000 0.000 0.000 0.000 Not Reported Not Reported
04/08/2021 08:55 PM 43.70 34.34 17.06 58.46 29.48 33.0 Not Reported 2.91 NE 2.68 N 3.58 N No 0.000 No Precipitation 03/22/2021 01:31 PM 03/22/2021 01:36 PM 0.000 0.000 0.000 0.000 0.000 Not Reported Not Reported
04/08/2021 09:00 PM 44.24 34.70 17.60 58.46 29.48 33.0 Not Reported 5.14 N 4.70 N 5.82 N No 0.000 No Precipitation 03/22/2021 01:31 PM 03/22/2021 01:36 PM 0.000 0.000 0.000 0.000 0.000 Not Reported Not Reported
04/08/2021 09:05 PM 44.06 34.70 17.60 58.46 29.48 34.0 Not Reported 4.03 N 4.70 NE 5.82 N No 0.000 No Precipitation 03/22/2021 01:31 PM 03/22/2021 01:36 PM 0.000 0.000 0.000 0.000 0.000 Not Reported Not Reported
04/08/2021 09:10 PM 43.70 34.52 17.60 58.46 29.48 34.0 Not Reported 2.91 N 2.24 N 5.59 N No 0.000 No Precipitation 03/22/2021 01:31 PM 03/22/2021 01:36 PM 0.000 0.000 0.000 0.000 0.000 Not Reported Not Reported
04/08/2021 09:15 PM 42.98 34.16 17.78 58.46 29.48 35.0 Not Reported 2.46 N 2.91 N 4.03 N No 0.000 No Precipitation 03/22/2021 01:31 PM 03/22/2021 01:36 PM 0.000 0.000 0.000 0.000 0.000 Not Reported Not Reported
04/08/2021 09:20 PM 43.34 34.52 18.50 58.46 29.48 36.0 Not Reported 3.80 N 3.80 N 4.70 N No 0.000 No Precipitation 03/22/2021 01:31 PM 03/22/2021 01:36 PM 0.000 0.000 0.000 0.000 0.000 Not Reported Not Reported
04/08/2021 09:25 PM 43.16 34.34 18.50 58.46 29.48 36.0 Not Reported 1.79 N 1.79 NW 4.70 N No 0.000 No Precipitation 03/22/2021 01:31 PM 03/22/2021 01:36 PM 0.000 0.000 0.000 0.000 0.000 Not Reported Not Reported
04/08/2021 09:30 PM 42.62 34.16 18.86 58.46 29.48 37.0 Not Reported 0.45 N 0.00 NW 4.03 N No 0.000 No Precipitation 03/22/2021 01:31 PM 03/22/2021 01:36 PM 0.000 0.000 0.000 0.000 0.000 Not Reported Not Reported
04/08/2021 09:35 PM 41.90 33.62 18.86 58.46 29.48 38.0 Not Reported 0.67 NW 0.45 NW 1.57 N No 0.000 No Precipitation 03/22/2021 01:31 PM 03/22/2021 01:36 PM 0.000 0.000 0.000 0.000 0.000 Not Reported Not Reported
04/08/2021 09:40 PM 41.18 33.26 19.04 58.46 29.48 40.0 Not Reported 1.12 NW 0.89 NW 1.34 NW No 0.000 No Precipitation 03/22/2021 01:31 PM 03/22/2021 01:36 PM 0.000 0.000 0.000 0.000 0.000 Not Reported Not Reported
04/08/2021 09:45 PM 40.64 33.08 19.04 58.46 29.48 41.0 Not Reported 0.45 NW 0.00 N 1.57 NW No 0.000 No Precipitation 03/22/2021 01:31 PM 03/22/2021 01:36 PM 0.000 0.000 0.000 0.000 0.000 Not Reported Not Reported
04/08/2021 09:50 PM 41.18 33.44 19.40 58.46 29.48 41.0 Not Reported 0.45 N 0.89 N 1.57 NW No 0.000 No Precipitation 03/22/2021 01:31 PM 03/22/2021 01:36 PM 0.000 0.000 0.000 0.000 0.000 Not Reported Not Reported
04/08/2021 09:55 PM 41.00 33.26 19.58 58.46 29.48 41.0 Not Reported 0.00 N 0.22 NW 1.34 NW No 0.000 No Precipitation 03/22/2021 01:31 PM 03/22/2021 01:36 PM 0.000 0.000 0.000 0.000 0.000 Not Reported Not Reported
04/08/2021 10:00 PM 41.00 33.44 19.94 58.46 29.48 42.0 Not Reported 1.34 NW 1.34 NW 2.01 NW No 0.000 No Precipitation 03/22/2021 01:31 PM 03/22/2021 01:36 PM 0.000 0.000 0.000 0.000 0.000 Not Reported Not Reported
04/08/2021 10:05 PM 39.38 32.54 19.76 58.46 29.48 44.0 Not Reported 1.79 N 2.01 N 2.24 NW No 0.000 No Precipitation 03/22/2021 01:31 PM 03/22/2021 01:36 PM 0.000 0.000 0.000 0.000 0.000 Not Reported Not Reported
04/08/2021 10:10 PM 39.20 32.36 19.94 58.46 29.48 45.0 Not Reported 1.12 N 2.01 NE 2.24 NW No 0.000 No Precipitation 03/22/2021 01:31 PM 03/22/2021 01:36 PM 0.000 0.000 0.000 0.000 0.000 Not Reported Not Reported
04/08/2021 10:15 PM 37.76 31.46 19.22 58.46 29.48 46.0 Not Reported 2.01 N 1.79 N 2.91 NE No 0.000 No Precipitation 03/22/2021 01:31 PM 03/22/2021 01:36 PM 0.000 0.000 0.000 0.000 0.000 Not Reported Not Reported
04/08/2021 10:20 PM 37.40 31.28 19.40 58.46 29.48 47.0 Not Reported 1.79 N 2.01 N 2.91 NE No 0.000 No Precipitation 03/22/2021 01:31 PM 03/22/2021 01:36 PM 0.000 0.000 0.000 0.000 0.000 Not Reported Not Reported
04/08/2021 10:25 PM 37.76 31.64 19.94 58.46 29.48 47.0 Not Reported 1.79 N 2.46 N 2.46 N No 0.000 No Precipitation 03/22/2021 01:31 PM 03/22/2021 01:36 PM 0.000 0.000 0.000 0.000 0.000 Not Reported Not Reported
04/08/2021 10:30 PM 37.58 31.64 20.12 58.46 29.48 48.0 Not Reported 2.68 N 2.91 N 3.13 N No 0.000 No Precipitation 03/22/2021 01:31 PM 03/22/2021 01:36 PM 0.000 0.000 0.000 0.000 0.000 Not Reported Not Reported
04/08/2021 10:35 PM 37.94 32.00 20.66 58.46 29.48 48.0 Not Reported 1.34 NW 0.67 N 3.13 N No 0.000 No Precipitation 03/22/2021 01:31 PM 03/22/2021 01:36 PM 0.000 0.000 0.000 0.000 0.000 Not Reported Not Reported
04/08/2021 10:40 PM 39.20 32.72 21.56 58.46 29.48 48.0 Not Reported 2.24 N 2.46 N 2.46 N No 0.000 No Precipitation 03/22/2021 01:31 PM 03/22/2021 01:36 PM 0.000 0.000 0.000 0.000 0.000 Not Reported Not Reported
04/08/2021 10:45 PM 39.02 32.72 21.56 58.46 29.48 49.0 Not Reported 2.01 N 1.57 N 2.68 NE No 0.000 No Precipitation 03/22/2021 01:31 PM 03/22/2021 01:36 PM 0.000 0.000 0.000 0.000 0.000 Not Reported Not Reported
04/08/2021 10:55 PM 33.44 28.76 19.04 58.46 29.48 54.0 Not Reported 2.68 E 2.91 E 2.91 E No 0.000 No Precipitation 03/22/2021 01:31 PM 03/22/2021 01:36 PM 0.000 0.000 0.000 0.000 0.000 Not Reported Not Reported
04/08/2021 11:05 PM 33.80 29.30 19.76 58.46 29.48 55.0 Not Reported 2.68 E 2.46 E 3.36 SE No 0.000 No Precipitation 03/22/2021 01:31 PM 03/22/2021 01:36 PM 0.000 0.000 0.000 0.000 0.000 Not Reported Not Reported
04/08/2021 11:10 PM 32.54 28.22 19.22 58.46 29.48 57.0 Not Reported 2.68 E 3.36 E 3.80 E No 0.000 No Precipitation 03/22/2021 01:31 PM 03/22/2021 01:36 PM 0.000 0.000 0.000 0.000 0.000 Not Reported Not Reported
04/08/2021 11:15 PM 32.54 28.40 19.76 58.46 29.48 58.0 Not Reported 2.24 NE 2.91 NE 3.80 E No 0.000 No Precipitation 03/22/2021 01:31 PM 03/22/2021 01:36 PM 0.000 0.000 0.000 0.000 0.000 Not Reported Not Reported
04/08/2021 11:20 PM 32.00 27.68 18.86 58.46 29.48 58.0 Not Reported 2.01 NE 3.13 N 3.13 N No 0.000 No Precipitation 03/22/2021 01:31 PM 03/22/2021 01:36 PM 0.000 0.000 0.000 0.000 0.000 Not Reported Not Reported
04/08/2021 11:30 PM 32.72 28.58 19.58 58.46 29.48 57.0 Not Reported 2.01 E 2.68 E 3.13 NE No 0.000 No Precipitation 03/22/2021 01:31 PM 03/22/2021 01:36 PM 0.000 0.000 0.000 0.000 0.000 Not Reported Not Reported
04/08/2021 11:40 PM 31.46 27.32 18.32 58.46 29.48 57.0 Not Reported 2.68 E 2.24 E 2.91 E No 0.000 No Precipitation 03/22/2021 01:31 PM 03/22/2021 01:36 PM 0.000 0.000 0.000 0.000 0.000 Not Reported Not Reported
04/08/2021 11:45 PM 31.10 26.96 18.32 58.46 29.48 58.0 Not Reported 2.01 E 2.24 NE 3.13 E No 0.000 No Precipitation 03/22/2021 01:31 PM 03/22/2021 01:36 PM 0.000 0.000 0.000 0.000 0.000 Not Reported Not Reported
04/08/2021 11:50 PM 32.00 27.86 18.68 58.46 29.48 57.0 Not Reported 1.79 NE 2.01 NE 3.13 E No 0.000 No Precipitation 03/22/2021 01:31 PM 03/22/2021 01:36 PM 0.000 0.000 0.000 0.000 0.000 Not Reported Not Reported
04/08/2021 11:55 PM 29.48 25.70 17.06 58.46 29.48 59.0 Not Reported 2.46 NE 2.24 NE 2.68 NE No 0.000 No Precipitation 03/22/2021 01:31 PM 03/22/2021 01:36 PM 0.000 0.000 0.000 0.000 0.000 Not Reported Not Reported